Aérodrome :
LOGIN :

S'inscrire | Disclaimer

   EN    FR    IT 

 










Légende :    VFR   VFR Marginal   IFR   IFR Intensif   IFR Très Intensif
Visi : 
Plafond : 
>= 8 km
>= 3000ft
5 à 8 km
1000 à 3000 ft
1500m à 5 km
500 à 1000 ft
800 à 1500m
200 à 500 ft
< 800m
< 200 ft
Symboles :   Orages  Brouillard  Fortes neiges  Fortes précipitations  Vent > 20 kt
SIGMETs :   Divers  Orages  Givrage  Turbulence  Onde Orograph.  Cendres Volcan.






- Altitude de l'aérodrome : 84 ft


LFBC - Cazaux

DERNIER METAR :
  • 232000Z AUTO 15002KT 9999 BKN041/// BKN140/// ///CB 17/15 Q1020 TEMPO 4000 SHRA BECMG 22010KT

METARs EXPIRÉS :
  • 231930Z AUTO 12002KT 9999 ///TCU 18/15 Q1020 TEMPO 4000 SHRA SCT015CB BECMG 22010KT
  • 231900Z AUTO 00000KT 9999 FEW046/// BKN170/// OVC200/// ///CB 18/15 Q1020 TEMPO 2000 TSRA BECMG 22010KT
  • 231830Z AUTO 02004KT 350V050 9999 FEW038/// BKN092/// BKN110/// ///CB 18/15 Q1019 TEMPO 2000 TSRA BECMG 22010KT
  • 231800Z AUTO 01004KT 9999 FEW043/// SCT078/// OVC094/// ///CB 18/15 Q1019 TEMPO 2000 TSRA BECMG 22010KT
  • 231730Z AUTO 03004KT 360V060 9999 -DZ FEW015/// SCT035/// OVC072/// ///CB 18/15 Q1019 TEMPO 2000 TSRA BECMG 22010KT

TAF TAF LFBC
Valide du 23 à 15h jusqu'au 24 à 15h UTC


231400Z 2315/2415 22010KT 9999 BKN020 SCT055
TEMPO 2315/2324 4000 SHRA SCT015CB
PROB40
TEMPO 2315/2321 2000 TSRA
PROB30
TEMPO 2400/2403 4000 SHRA SCT020TCU
BECMG 2405/2407 SCT020TCU BKN025
TEMPO 2407/2415 4800 -SHRA



MET'MAP, la Météo Aéronautique d'un coup d'oeil ! - Copyright ORBIFLY Décembre 2007 - Disclaimer

ORBIFLY MET'MAP TEAM :

Programmation & Développement : Alexandra Zaïnal
Sur une idée originale de : Baudouin d'Aumeries
Assistance à la programmation : Marc-Olivier Méhu
Soutien technique & logistique : Manuel Goepfert

Contact : metmap@orbifly.com




SOURCES & CREDITS :

   NOAA